Time;durP1;ratioP1;P1;durP2;ratioP2;P2;SDS_P1;SDS_P2;PMS_P1;PMS_P2;Temp;Humidity;BMP_temperature;BMP_pressure;BME280_temperature;BME280_humidity;BME280_pressure;Samples;Min_cycle;Max_cycle;Signal;HPM_P1;HPM_P2
2022/08/18 00:02:11;;;;;;;8.77;7.88;;;19.80;95.60;;;;;;5108452;28;20214;-87
2022/08/18 00:04:38;;;;;;;9.30;7.80;;;19.80;95.10;;;;;;5106698;28;20735;-87
2022/08/18 00:07:06;;;;;;;8.48;7.53;;;19.70;95.80;;;;;;5096109;28;20262;-87
2022/08/18 00:09:46;;;;;;;9.13;7.10;;;19.70;95.90;;;;;;5110705;28;20214;-86
2022/08/18 00:12:17;;;;;;;8.90;7.72;;;19.70;95.90;;;;;;5102057;28;20230;-87
2022/08/18 00:14:45;;;;;;;9.38;8.23;;;19.70;95.70;;;;;;5111984;28;20207;-87
2022/08/18 00:17:16;;;;;;;8.10;6.82;;;19.70;95.60;;;;;;5096552;28;20196;-86
2022/08/18 00:19:43;;;;;;;8.57;7.68;;;19.70;96.20;;;;;;5098520;28;20203;-87
2022/08/18 00:22:12;;;;;;;7.45;6.60;;;19.70;95.90;;;;;;5095914;28;20205;-86
2022/08/18 00:24:39;;;;;;;8.07;6.85;;;19.80;95.60;;;;;;5109981;28;20287;-87
2022/08/18 00:27:09;;;;;;;7.22;6.53;;;19.80;95.90;;;;;;5105928;28;20604;-86
2022/08/18 00:29:37;;;;;;;7.53;6.78;;;19.70;95.60;;;;;;5094450;28;20261;-86
2022/08/18 00:32:12;;;;;;;10.43;6.72;;;19.80;95.10;;;;;;5096111;28;20219;-86
2022/08/18 00:34:40;;;;;;;8.15;6.80;;;19.70;95.30;;;;;;5107512;28;20199;-86
2022/08/18 00:37:07;;;;;;;7.57;6.38;;;19.70;95.40;;;;;;5094007;28;20203;-86
2022/08/18 00:39:35;;;;;;;8.38;6.18;;;19.70;95.00;;;;;;5105524;28;20196;-86
2022/08/18 00:42:13;;;;;;;6.95;6.32;;;19.70;94.70;;;;;;5101169;28;20196;-86
2022/08/18 00:44:41;;;;;;;7.43;6.13;;;19.70;95.60;;;;;;5102987;28;20220;-86
2022/08/18 00:47:14;;;;;;;7.93;6.00;;;19.60;95.40;;;;;;5098614;28;20665;-86
2022/08/18 00:49:44;;;;;;;6.30;5.70;;;19.60;95.60;;;;;;5114770;28;20199;-87
2022/08/18 00:52:13;;;;;;;6.45;5.85;;;19.50;95.30;;;;;;5097949;28;20215;-86
2022/08/18 00:54:43;;;;;;;7.80;5.82;;;19.50;95.50;;;;;;5105379;28;20204;-86
2022/08/18 00:57:12;;;;;;;6.32;5.20;;;19.50;95.40;;;;;;5113671;28;20253;-87
2022/08/18 00:59:45;;;;;;;7.22;5.93;;;19.70;94.70;;;;;;5112265;28;20196;-86
2022/08/18 01:02:18;;;;;;;9.18;6.30;;;19.60;94.90;;;;;;5114196;28;20210;-87
2022/08/18 01:04:49;;;;;;;7.50;5.90;;;19.50;95.20;;;;;;5110284;28;20193;-87
2022/08/18 01:07:20;;;;;;;6.20;5.60;;;19.50;94.90;;;;;;5101852;28;20225;-86
2022/08/18 01:09:47;;;;;;;6.78;5.88;;;19.40;95.30;;;;;;5109872;28;20197;-87
2022/08/18 01:12:14;;;;;;;6.82;5.80;;;19.40;95.60;;;;;;5113629;28;20226;-86
2022/08/18 01:14:43;;;;;;;7.05;5.72;;;19.40;95.20;;;;;;5110140;28;20218;-87
2022/08/18 01:23:15;;;;;;;6.65;5.32;;;19.50;95.20;;;;;;5110549;28;20253;-86
2022/08/18 01:25:59;;;;;;;5.72;5.22;;;19.50;94.90;;;;;;5101258;28;20290;-86
2022/08/18 01:28:27;;;;;;;6.35;5.30;;;19.50;94.50;;;;;;5098236;28;20716;-86
2022/08/18 01:30:57;;;;;;;5.97;5.47;;;19.50;94.40;;;;;;5112178;28;20200;-87
2022/08/18 01:33:25;;;;;;;6.28;5.50;;;19.40;94.90;;;;;;5106067;28;20204;-86
2022/08/18 01:35:54;;;;;;;8.50;6.20;;;19.30;95.30;;;;;;5109617;28;20237;-86
2022/08/18 01:38:22;;;;;;;8.70;5.53;;;19.20;95.10;;;;;;5093210;28;20196;-86
2022/08/18 01:40:50;;;;;;;7.85;5.85;;;19.10;95.20;;;;;;5098289;28;20200;-86
2022/08/18 01:43:18;;;;;;;6.22;5.70;;;19.20;95.10;;;;;;5101671;28;20582;-86
2022/08/18 01:45:44;;;;;;;6.90;5.95;;;19.10;95.30;;;;;;5107325;28;20537;-86
2022/08/18 01:48:12;;;;;;;7.35;5.93;;;19.00;95.70;;;;;;5098373;28;20208;-86
2022/08/18 01:50:40;;;;;;;6.97;5.72;;;18.90;95.90;;;;;;5108097;28;20200;-86
2022/08/18 01:53:08;;;;;;;6.72;6.07;;;18.90;96.00;;;;;;5102905;28;20732;-86
2022/08/18 01:55:37;;;;;;;6.50;5.82;;;18.80;96.10;;;;;;5110029;28;20283;-86
2022/08/18 01:58:06;;;;;;;6.95;5.95;;;18.80;96.10;;;;;;5115807;28;20200;-86
2022/08/18 02:00:35;;;;;;;6.13;5.53;;;18.80;96.00;;;;;;5116178;28;20203;-86
2022/08/18 02:03:07;;;;;;;7.75;5.70;;;18.90;95.70;;;;;;5115956;28;20623;-86
2022/08/18 02:05:37;;;;;;;6.53;5.88;;;18.80;95.60;;;;;;5105974;28;20204;-86
2022/08/18 02:08:11;;;;;;;6.78;6.13;;;18.80;96.20;;;;;;5112813;28;20224;-87
2022/08/18 02:10:40;;;;;;;6.80;5.93;;;18.90;95.90;;;;;;5117051;27;20595;-86
2022/08/18 02:13:08;;;;;;;6.93;5.75;;;18.90;95.50;;;;;;5112993;28;20227;-87
2022/08/18 02:15:35;;;;;;;8.10;5.90;;;18.80;95.80;;;;;;5114246;28;20199;-86
2022/08/18 02:18:07;;;;;;;7.00;5.60;;;18.70;96.10;;;;;;5114351;28;20207;-86
2022/08/18 02:20:34;;;;;;;8.60;5.85;;;18.60;96.50;;;;;;5112157;28;20200;-87
2022/08/18 02:23:02;;;;;;;6.25;5.70;;;18.70;96.00;;;;;;5115492;28;20203;-86
2022/08/18 02:25:29;;;;;;;6.63;5.90;;;18.60;96.00;;;;;;5115858;28;20196;-86
2022/08/18 02:27:58;;;;;;;7.35;5.57;;;18.70;96.10;;;;;;5115914;28;20196;-87
2022/08/18 02:30:25;;;;;;;6.32;5.53;;;18.70;95.90;;;;;;5112905;27;20192;-86
2022/08/18 02:32:51;;;;;;;6.03;5.43;;;18.60;95.80;;;;;;5116270;28;20230;-86
2022/08/18 02:35:19;;;;;;;5.88;5.35;;;18.60;96.20;;;;;;5116035;28;20291;-86
2022/08/18 02:37:46;;;;;;;5.93;5.32;;;18.50;96.30;;;;;;5116430;28;20738;-86
2022/08/18 02:40:14;;;;;;;8.82;5.47;;;18.50;96.20;;;;;;5112830;28;20200;-86
2022/08/18 02:42:45;;;;;;;6.13;5.60;;;18.50;96.10;;;;;;5115225;27;20207;-86
2022/08/18 02:45:14;;;;;;;5.70;5.20;;;18.50;95.80;;;;;;5115061;28;20251;-86
2022/08/18 02:47:42;;;;;;;5.90;5.40;;;18.50;96.00;;;;;;5113587;28;20199;-87
2022/08/18 02:50:09;;;;;;;6.18;5.53;;;18.60;95.80;;;;;;5113224;27;20204;-87
2022/08/18 02:52:36;;;;;;;5.60;5.10;;;18.70;95.50;;;;;;5114028;28;20216;-87
2022/08/18 02:55:04;;;;;;;5.50;5.00;;;18.70;95.20;;;;;;5114993;28;20210;-87
2022/08/18 02:57:31;;;;;;;6.50;5.90;;;18.50;95.40;;;;;;5114968;28;20219;-87
2022/08/18 03:00:04;;;;;;;5.50;5.00;;;18.50;96.10;;;;;;5106354;28;20211;-87
2022/08/18 03:02:32;;;;;;;5.82;5.22;;;18.50;95.90;;;;;;5110355;28;20210;-87
2022/08/18 03:04:59;;;;;;;6.15;5.13;;;18.50;95.80;;;;;;5106674;28;20212;-87
2022/08/18 03:07:25;;;;;;;6.32;5.03;;;18.50;95.30;;;;;;5109315;28;20228;-87
2022/08/18 03:09:52;;;;;;;6.20;5.60;;;18.50;95.60;;;;;;5101749;28;20563;-87
2022/08/18 03:12:19;;;;;;;5.35;4.85;;;18.40;95.80;;;;;;5115225;28;20571;-86
2022/08/18 03:14:46;;;;;;;6.60;5.00;;;18.50;95.50;;;;;;5110074;28;20205;-86
2022/08/18 03:17:13;;;;;;;5.60;5.10;;;18.40;95.50;;;;;;5106200;28;20191;-87
2022/08/18 03:19:44;;;;;;;5.25;4.82;;;18.40;96.10;;;;;;5110857;28;20205;-86
2022/08/18 03:22:11;;;;;;;5.47;4.97;;;18.50;95.60;;;;;;5104997;28;20250;-87
2022/08/18 03:24:38;;;;;;;5.90;5.32;;;18.40;95.40;;;;;;5100828;28;20201;-87
2022/08/18 03:27:06;;;;;;;5.38;4.88;;;18.30;95.60;;;;;;5117036;28;20195;-86
2022/08/18 03:29:34;;;;;;;5.50;5.00;;;18.40;95.40;;;;;;5119215;28;20196;-86
2022/08/18 03:32:02;;;;;;;5.30;4.80;;;18.40;95.60;;;;;;5101729;28;20231;-86
2022/08/18 03:34:31;;;;;;;5.95;5.35;;;18.30;95.40;;;;;;5127840;28;20202;-86
2022/08/18 03:36:59;;;;;;;5.60;4.95;;;18.30;95.70;;;;;;5122225;28;20200;-86
2022/08/18 03:39:26;;;;;;;5.35;4.78;;;18.30;95.70;;;;;;5114693;28;20203;-87
2022/08/18 03:41:55;;;;;;;5.40;4.90;;;18.30;95.70;;;;;;5100780;28;20196;-86
2022/08/18 03:44:23;;;;;;;5.20;4.70;;;18.30;95.60;;;;;;5114445;28;20734;-86
2022/08/18 03:46:51;;;;;;;6.07;4.72;;;18.40;95.40;;;;;;5113488;28;20224;-87
2022/08/18 03:49:19;;;;;;;4.97;4.57;;;18.30;95.20;;;;;;5106057;28;20208;-86
2022/08/18 03:51:46;;;;;;;5.78;5.28;;;18.20;95.60;;;;;;5109009;28;20247;-86
2022/08/18 03:54:16;;;;;;;5.40;4.90;;;18.20;95.70;;;;;;5115367;28;20204;-87
2022/08/18 03:56:44;;;;;;;5.78;5.28;;;18.10;95.90;;;;;;5101776;27;20200;-86
2022/08/18 03:59:16;;;;;;;5.78;5.28;;;18.00;96.40;;;;;;5108444;28;20200;-86
2022/08/18 04:01:44;;;;;;;7.10;5.40;;;17.90;96.80;;;;;;5104529;28;20570;-86
2022/08/18 04:04:14;;;;;;;7.20;5.45;;;17.80;97.00;;;;;;5113312;28;20195;-86
2022/08/18 04:06:48;;;;;;;6.10;5.50;;;17.80;97.60;;;;;;5103699;28;20291;-86
2022/08/18 04:09:18;;;;;;;6.07;5.47;;;17.80;97.40;;;;;;5110752;28;20199;-86
2022/08/18 04:11:46;;;;;;;7.00;5.00;;;17.80;97.10;;;;;;5112307;28;20196;-86
2022/08/18 04:14:15;;;;;;;6.10;5.50;;;17.70;97.20;;;;;;5113054;28;20199;-86
2022/08/18 04:16:45;;;;;;;5.18;4.68;;;17.60;97.50;;;;;;5112256;28;20203;-86
2022/08/18 04:19:12;;;;;;;6.97;5.65;;;17.60;97.50;;;;;;5113339;28;20196;-86
2022/08/18 04:21:41;;;;;;;5.85;5.35;;;17.50;97.70;;;;;;5110231;28;20196;-86
2022/08/18 04:24:09;;;;;;;5.90;5.40;;;17.50;98.20;;;;;;5114733;28;20203;-86
2022/08/18 04:26:41;;;;;;;5.13;4.70;;;17.60;98.20;;;;;;5110770;28;20192;-86
2022/08/18 04:29:10;;;;;;;5.80;5.20;;;17.70;97.50;;;;;;5114132;28;20299;-86
2022/08/18 04:31:37;;;;;;;5.95;5.35;;;17.70;97.50;;;;;;5108675;28;20230;-86
2022/08/18 04:34:09;;;;;;;6.30;5.15;;;17.70;97.50;;;;;;5102881;28;20196;-86
2022/08/18 04:36:36;;;;;;;6.65;5.35;;;17.60;97.50;;;;;;5113017;28;20219;-86
2022/08/18 04:39:06;;;;;;;5.72;5.15;;;17.60;97.70;;;;;;5112041;28;20613;-86
2022/08/18 04:41:42;;;;;;;5.65;5.15;;;17.60;98.10;;;;;;5112812;28;20559;-86
2022/08/18 04:44:10;;;;;;;6.25;5.72;;;17.60;97.70;;;;;;5112482;28;20219;-86
2022/08/18 04:46:39;;;;;;;5.63;5.13;;;17.80;98.00;;;;;;5112715;27;20558;-87
2022/08/18 04:49:09;;;;;;;5.93;5.43;;;18.00;97.60;;;;;;5108096;28;20196;-86
2022/08/18 04:51:36;;;;;;;5.97;5.47;;;18.10;97.60;;;;;;5107771;28;20206;-86
2022/08/18 04:54:08;;;;;;;6.78;5.38;;;18.30;96.90;;;;;;5110260;28;20216;-86
2022/08/18 04:56:37;;;;;;;5.95;5.18;;;18.30;96.40;;;;;;5106119;28;20207;-86
2022/08/18 04:59:08;;;;;;;6.13;5.53;;;18.30;96.20;;;;;;5111671;28;20204;-86
2022/08/18 05:01:41;;;;;;;5.28;4.88;;;18.40;96.50;;;;;;5093299;28;20200;-86
2022/08/18 05:04:12;;;;;;;6.15;5.55;;;18.50;96.40;;;;;;5094641;28;20227;-87
2022/08/18 05:06:39;;;;;;;5.72;5.22;;;18.50;96.40;;;;;;5112839;28;20642;-86
2022/08/18 05:09:08;;;;;;;6.18;5.40;;;18.50;96.30;;;;;;5110550;28;20196;-87
2022/08/18 05:11:36;;;;;;;6.47;5.38;;;18.60;96.30;;;;;;5111178;28;20566;-86
2022/08/18 05:14:07;;;;;;;7.22;5.10;;;18.60;95.70;;;;;;5111769;28;20610;-86
2022/08/18 05:16:35;;;;;;;5.55;4.85;;;18.70;95.60;;;;;;5105957;28;20647;-86
2022/08/18 05:19:03;;;;;;;5.40;4.90;;;18.80;95.40;;;;;;5112699;28;20203;-86
2022/08/18 05:21:31;;;;;;;5.47;4.97;;;18.90;95.30;;;;;;5111950;28;20222;-86
2022/08/18 05:23:59;;;;;;;5.32;4.88;;;18.90;95.00;;;;;;5112266;28;20196;-86
2022/08/18 05:26:27;;;;;;;5.32;4.82;;;19.10;95.20;;;;;;5111742;28;20192;-86
2022/08/18 05:28:54;;;;;;;5.82;5.10;;;19.10;95.00;;;;;;5112612;28;20196;-86
2022/08/18 05:31:25;;;;;;;6.65;5.30;;;19.10;94.70;;;;;;5112015;28;20719;-86
2022/08/18 05:33:54;;;;;;;6.65;5.30;;;19.30;94.50;;;;;;5107135;28;20227;-86
2022/08/18 05:36:36;;;;;;;5.78;5.00;;;19.40;93.80;;;;;;5109545;28;20709;-86
2022/08/18 05:39:10;;;;;;;5.65;5.05;;;19.60;93.00;;;;;;5112069;28;20232;-86
2022/08/18 05:41:40;;;;;;;5.05;4.57;;;19.80;92.60;;;;;;5111444;28;20210;-86
2022/08/18 05:44:08;;;;;;;5.63;5.13;;;19.80;92.60;;;;;;5110586;28;20254;-86
2022/08/18 05:46:42;;;;;;;7.10;5.05;;;19.90;91.50;;;;;;5112012;28;20663;-86
2022/08/18 05:49:15;;;;;;;5.03;4.63;;;20.10;91.40;;;;;;5112463;28;20682;-86
2022/08/18 05:51:46;;;;;;;5.00;4.40;;;20.20;90.90;;;;;;5113715;28;20198;-86
2022/08/18 05:57:04;;;;;;;5.65;5.05;;;20.50;88.20;;;;;;5100447;28;20297;-86
2022/08/18 05:59:33;;;;;;;5.93;5.07;;;20.60;86.60;;;;;;5111784;28;20208;-86
2022/08/18 06:02:10;;;;;;;7.53;4.78;;;20.60;86.20;;;;;;5112916;28;20546;-86
2022/08/18 06:04:44;;;;;;;5.35;4.80;;;20.70;85.80;;;;;;5109326;28;20208;-83
2022/08/18 06:07:18;;;;;;;6.00;5.25;;;20.60;85.50;;;;;;5108884;28;20195;-83
2022/08/18 06:09:50;;;;;;;6.53;5.32;;;20.60;85.90;;;;;;5117051;28;20670;-86
2022/08/18 06:12:32;;;;;;;5.25;4.75;;;20.60;87.30;;;;;;5125389;28;20208;-83
2022/08/18 06:15:04;;;;;;;5.38;4.78;;;20.70;84.20;;;;;;5124555;28;20204;-84
2022/08/18 06:18:06;;;;;;;6.85;4.85;;;20.80;83.70;;;;;;5116358;28;20200;-83
2022/08/18 06:20:43;;;;;;;6.38;4.82;;;20.90;84.10;;;;;;5113618;28;20210;-83
2022/08/18 06:23:23;;;;;;;6.13;4.60;;;20.90;81.40;;;;;;5114205;28;20667;-83
2022/08/18 06:26:07;;;;;;;7.43;4.90;;;21.10;81.60;;;;;;5115956;28;20217;-83
2022/08/18 06:28:50;;;;;;;6.00;4.80;;;21.10;81.60;;;;;;5110964;28;20203;-86
2022/08/18 06:31:28;;;;;;;5.20;4.70;;;21.00;81.60;;;;;;5110627;28;20204;-86
2022/08/18 06:34:02;;;;;;;6.63;4.88;;;20.90;81.40;;;;;;5102471;28;20224;-86
2022/08/18 06:36:40;;;;;;;5.90;4.60;;;20.80;83.60;;;;;;5115702;27;20584;-86
2022/08/18 06:39:17;;;;;;;7.72;5.10;;;20.80;84.50;;;;;;5116271;28;20196;-86
2022/08/18 06:41:47;;;;;;;6.50;5.30;;;20.80;85.00;;;;;;5113240;28;20198;-86
2022/08/18 06:44:20;;;;;;;8.55;4.80;;;20.70;86.90;;;;;;5114229;28;20224;-86
2022/08/18 06:46:53;;;;;;;5.20;4.70;;;20.70;87.70;;;;;;5113966;28;20192;-84
2022/08/18 06:49:40;;;;;;;5.85;4.68;;;20.90;85.10;;;;;;5105776;28;20193;-84
2022/08/18 06:52:29;;;;;;;7.90;5.35;;;21.10;81.60;;;;;;5114661;28;20199;-86
2022/08/18 06:54:58;;;;;;;9.63;4.75;;;21.10;83.20;;;;;;5117379;28;20196;-83
2022/08/18 06:57:30;;;;;;;7.90;5.03;;;21.00;81.60;;;;;;5103955;28;20658;-83
2022/08/18 07:00:00;;;;;;;7.88;5.45;;;21.20;82.60;;;;;;5106765;28;20200;-84
2022/08/18 07:02:43;;;;;;;7.07;4.93;;;21.30;81.70;;;;;;5115878;28;20200;-83
2022/08/18 07:05:20;;;;;;;6.35;5.20;;;21.30;81.00;;;;;;5107272;28;20211;-84
2022/08/18 07:08:09;;;;;;;6.18;5.43;;;21.60;79.50;;;;;;5112291;28;20222;-84
2022/08/18 07:10:39;;;;;;;6.78;5.25;;;21.80;77.10;;;;;;5108721;28;20258;-83
2022/08/18 07:13:25;;;;;;;7.45;5.10;;;21.90;73.80;;;;;;5105392;28;20212;-84
2022/08/18 07:15:53;;;;;;;9.02;5.15;;;22.00;74.70;;;;;;5117033;28;20787;-84
2022/08/18 07:18:28;;;;;;;9.73;5.28;;;22.10;73.50;;;;;;5113607;28;20692;-84
2022/08/18 07:20:59;;;;;;;8.07;4.82;;;21.90;75.70;;;;;;5118254;28;20191;-84
2022/08/18 07:23:32;;;;;;;7.30;5.15;;;21.90;73.20;;;;;;5111097;28;20643;-84
2022/08/18 07:26:07;;;;;;;6.40;5.07;;;22.00;73.50;;;;;;5119616;28;20226;-84
2022/08/18 07:28:47;;;;;;;6.18;4.85;;;22.10;71.90;;;;;;5102397;28;20203;-84
2022/08/18 07:31:23;;;;;;;7.50;4.97;;;22.20;71.00;;;;;;5106908;28;20192;-84
2022/08/18 07:33:55;;;;;;;5.80;4.80;;;22.10;71.00;;;;;;5112174;28;20294;-84
2022/08/18 07:36:32;;;;;;;7.60;4.97;;;22.00;73.70;;;;;;5118399;28;20196;-84
2022/08/18 07:39:05;;;;;;;6.32;5.53;;;22.20;69.00;;;;;;5109223;28;20202;-84
2022/08/18 07:41:35;;;;;;;5.40;4.82;;;22.40;66.90;;;;;;5105577;28;20207;-84
2022/08/18 07:44:17;;;;;;;6.53;5.70;;;22.60;66.40;;;;;;5111524;28;20687;-84
2022/08/18 07:46:51;;;;;;;7.53;5.00;;;22.50;65.40;;;;;;5103815;28;20188;-84
2022/08/18 07:49:21;;;;;;;5.38;4.88;;;22.60;65.40;;;;;;5101891;28;20211;-84
2022/08/18 07:51:56;;;;;;;6.20;5.32;;;22.70;65.10;;;;;;5104845;28;20199;-84
2022/08/18 07:54:38;;;;;;;6.47;4.80;;;22.80;65.40;;;;;;5098786;28;20614;-85
2022/08/18 07:57:12;;;;;;;7.75;4.60;;;23.00;64.00;;;;;;5097376;28;20194;-84
2022/08/18 07:59:51;;;;;;;6.32;5.47;;;23.10;63.40;;;;;;5110451;28;20290;-83
2022/08/18 08:02:28;;;;;;;5.85;5.15;;;23.20;61.00;;;;;;5114610;28;20200;-84
2022/08/18 08:05:03;;;;;;;5.95;5.38;;;23.30;60.80;;;;;;5100848;28;20208;-83
2022/08/18 08:07:39;;;;;;;7.10;6.13;;;23.20;58.80;;;;;;5114513;28;20198;-84
2022/08/18 08:10:23;;;;;;;6.35;5.20;;;23.10;58.70;;;;;;5103007;28;20221;-84
2022/08/18 08:12:57;;;;;;;8.15;7.38;;;23.10;58.70;;;;;;5097896;28;20669;-84
2022/08/18 08:15:42;;;;;;;6.13;5.40;;;22.90;58.60;;;;;;5097896;28;20207;-84
2022/08/18 08:18:16;;;;;;;6.90;6.20;;;23.30;58.90;;;;;;5111078;28;20188;-84
2022/08/18 08:20:50;;;;;;;7.55;6.07;;;23.40;59.00;;;;;;5096907;28;20196;-83
2022/08/18 08:23:28;;;;;;;6.65;5.80;;;23.60;56.80;;;;;;5105210;28;20314;-82
2022/08/18 08:26:31;;;;;;;8.38;6.63;;;23.70;55.50;;;;;;5106109;28;20208;-82
2022/08/18 08:29:17;;;;;;;6.43;5.82;;;24.00;52.10;;;;;;5042026;28;20202;-82
2022/08/18 08:31:50;;;;;;;6.57;5.90;;;23.90;53.40;;;;;;5051659;28;20202;-81
2022/08/18 08:34:23;;;;;;;7.00;5.43;;;24.10;54.00;;;;;;5044903;28;20226;-81
2022/08/18 08:36:52;;;;;;;9.35;6.13;;;24.20;52.30;;;;;;5048930;28;20233;-83
2022/08/18 08:39:25;;;;;;;7.63;5.97;;;24.40;50.00;;;;;;5034203;28;20205;-80
2022/08/18 08:41:55;;;;;;;7.22;6.13;;;24.50;47.90;;;;;;5038115;28;20616;-80
2022/08/18 08:44:26;;;;;;;6.45;5.85;;;24.50;46.90;;;;;;5044431;28;20263;-79
2022/08/18 08:47:05;;;;;;;6.65;6.07;;;24.40;48.40;;;;;;5038114;28;20210;-80
2022/08/18 08:49:37;;;;;;;6.82;6.07;;;24.60;47.90;;;;;;5046511;28;20202;-79
2022/08/18 08:52:16;;;;;;;9.20;6.50;;;24.80;48.20;;;;;;5062693;28;20253;-80
2022/08/18 08:54:52;;;;;;;8.95;6.15;;;24.50;45.30;;;;;;5044218;28;20222;-80
2022/08/18 08:57:21;;;;;;;6.95;6.25;;;24.70;45.90;;;;;;5035315;28;20236;-80
2022/08/18 08:59:49;;;;;;;6.50;5.70;;;24.70;46.10;;;;;;5049936;28;20208;-82
2022/08/18 09:02:57;;;;;;;8.02;5.82;;;24.90;43.80;;;;;;5050969;28;20204;-80
2022/08/18 09:05:26;;;;;;;8.13;6.35;;;25.00;40.30;;;;;;5017443;28;20207;-82
2022/08/18 09:08:28;;;;;;;6.13;5.25;;;25.10;40.50;;;;;;5114587;28;20203;-82
2022/08/18 09:11:18;;;;;;;6.45;5.18;;;25.40;40.50;;;;;;5107648;28;20218;-82
2022/08/18 09:14:10;;;;;;;6.72;5.07;;;25.90;31.50;;;;;;5115010;28;20223;-82
2022/08/18 09:16:51;;;;;;;5.68;4.75;;;26.30;28.30;;;;;;5115846;28;20241;-83
2022/08/18 09:19:35;;;;;;;6.82;5.13;;;27.70;24.30;;;;;;5112742;28;20210;-85
2022/08/18 09:22:10;;;;;;;6.78;5.75;;;29.40;20.50;;;;;;5106610;28;20207;-85
2022/08/18 09:24:44;;;;;;;7.20;5.72;;;29.70;17.70;;;;;;5106909;28;20653;-85
2022/08/18 09:27:23;;;;;;;5.85;5.38;;;29.80;17.70;;;;;;5110736;28;20585;-85
2022/08/18 09:29:53;;;;;;;5.57;5.10;;;30.50;16.90;;;;;;5105021;28;20567;-86
2022/08/18 09:32:52;;;;;;;6.63;5.07;;;31.10;17.10;;;;;;5102244;28;20196;-83
2022/08/18 09:35:36;;;;;;;5.57;5.07;;;31.60;14.60;;;;;;5110394;28;20212;-83
2022/08/18 09:41:32;;;;;;;6.82;6.22;;;31.50;14.90;;;;;;5110730;28;20241;-83
2022/08/18 09:44:13;;;;;;;6.53;5.90;;;31.70;14.80;;;;;;5119212;28;20693;-83
2022/08/18 09:46:55;;;;;;;6.82;6.10;;;32.10;13.80;;;;;;5120291;28;20221;-84
2022/08/18 09:49:46;;;;;;;9.63;8.68;;;32.40;13.30;;;;;;5103630;28;20196;-83
2022/08/18 09:52:53;;;;;;;7.63;6.43;;;32.10;14.50;;;;;;5117418;28;20187;-83
2022/08/18 09:55:57;;;;;;;6.82;6.32;;;31.90;14.50;;;;;;5108290;28;20667;-84
2022/08/18 09:58:57;;;;;;;7.40;6.70;;;32.00;15.20;;;;;;5112769;28;20231;-84
2022/08/18 10:01:38;;;;;;;6.47;5.88;;;31.30;16.30;;;;;;5109127;28;20282;-84
2022/08/18 10:04:30;;;;;;;9.57;6.30;;;29.80;16.50;;;;;;5109663;28;20286;-83
2022/08/18 10:07:29;;;;;;;7.88;6.05;;;28.90;18.10;;;;;;5099735;28;20214;-85
2022/08/18 10:10:12;;;;;;;7.82;6.22;;;28.30;19.50;;;;;;5096961;28;20195;-83
2022/08/18 10:12:57;;;;;;;6.38;5.72;;;27.80;23.00;;;;;;5098849;28;20200;-83
2022/08/18 10:15:42;;;;;;;7.40;6.70;;;28.30;22.50;;;;;;5110657;28;20301;-83
2022/08/18 10:18:36;;;;;;;17.05;15.55;;;28.40;21.00;;;;;;5100200;28;20199;-83
2022/08/18 10:21:11;;;;;;;7.20;5.78;;;29.10;20.90;;;;;;5098892;28;20566;-86
2022/08/18 10:23:57;;;;;;;6.22;5.60;;;30.30;16.80;;;;;;5117255;28;20253;-85
2022/08/18 10:27:06;;;;;;;6.80;5.88;;;30.70;17.00;;;;;;5103727;27;20199;-86
2022/08/18 10:29:55;;;;;;;9.68;5.95;;;30.80;17.00;;;;;;5048408;28;20209;-86
2022/08/18 10:32:44;;;;;;;7.18;6.47;;;30.80;17.10;;;;;;5051164;28;20198;-84
2022/08/18 10:35:51;;;;;;;7.15;6.50;;;31.20;15.60;;;;;;5046142;28;20715;-84
2022/08/18 10:38:36;;;;;;;9.02;8.30;;;31.30;16.60;;;;;;5047054;28;20198;-84
2022/08/18 10:41:23;;;;;;;6.95;6.35;;;32.50;13.80;;;;;;5045340;28;20205;-84
2022/08/18 10:43:53;;;;;;;6.65;6.05;;;32.10;13.70;;;;;;5051000;28;20236;-84
2022/08/18 10:46:23;;;;;;;6.88;6.25;;;32.10;14.90;;;;;;5043359;28;20202;-84
2022/08/18 10:49:16;;;;;;;6.95;6.22;;;32.60;14.20;;;;;;5049946;28;20197;-84
2022/08/18 10:52:20;;;;;;;6.72;6.13;;;32.30;13.30;;;;;;5048722;28;20202;-85
2022/08/18 10:55:20;;;;;;;6.28;5.38;;;31.70;13.00;;;;;;4973864;28;20223;-84
2022/08/18 10:58:13;;;;;;;7.10;6.40;;;31.30;15.70;;;;;;4974186;28;20210;-85
2022/08/18 11:00:51;;;;;;;6.85;6.15;;;31.60;14.20;;;;;;4974151;28;20295;-84
2022/08/18 11:03:30;;;;;;;6.55;5.88;;;32.20;13.10;;;;;;4964091;28;20291;-85
2022/08/18 11:06:06;;;;;;;6.75;6.05;;;32.30;13.00;;;;;;4993616;28;20209;-85
2022/08/18 11:08:38;;;;;;;6.45;5.95;;;32.40;12.40;;;;;;5023761;28;20202;-84
2022/08/18 11:11:12;;;;;;;6.45;5.93;;;31.30;15.90;;;;;;5034004;28;20213;-84
2022/08/18 11:13:54;;;;;;;7.78;6.95;;;30.70;16.50;;;;;;5033621;28;20227;-85
2022/08/18 11:16:33;;;;;;;7.72;6.93;;;29.40;17.00;;;;;;5033002;28;20626;-83
2022/08/18 11:19:08;;;;;;;7.25;6.00;;;28.10;20.20;;;;;;5029170;28;20198;-83
2022/08/18 11:21:41;;;;;;;7.85;6.47;;;27.80;22.10;;;;;;5033175;28;20190;-83
2022/08/18 11:24:12;;;;;;;9.63;7.13;;;27.70;21.20;;;;;;5021260;28;20269;-83
2022/08/18 11:26:43;;;;;;;7.43;6.45;;;27.60;21.60;;;;;;5027452;28;20202;-83
2022/08/18 11:29:28;;;;;;;7.47;6.47;;;27.70;21.10;;;;;;5040136;28;20198;-83
2022/08/18 11:31:59;;;;;;;8.07;6.18;;;27.60;22.70;;;;;;5119637;28;20266;-83
2022/08/18 11:34:41;;;;;;;7.20;6.47;;;28.20;20.30;;;;;;5125247;28;20676;-83
2022/08/18 11:37:20;;;;;;;7.90;6.47;;;28.20;22.00;;;;;;5119136;28;20728;-83
2022/08/18 11:39:49;;;;;;;8.00;5.80;;;27.90;22.00;;;;;;5101813;28;20196;-84
2022/08/18 11:42:19;;;;;;;7.15;6.35;;;28.00;22.10;;;;;;5105349;28;20196;-84
2022/08/18 11:44:53;;;;;;;7.47;6.72;;;27.90;23.00;;;;;;5101366;28;20686;-84
2022/08/18 11:47:21;;;;;;;7.18;5.90;;;27.50;22.80;;;;;;5119068;28;20312;-83
2022/08/18 11:50:08;;;;;;;9.40;6.63;;;27.10;24.20;;;;;;5118519;28;20200;-83
2022/08/18 11:52:48;;;;;;;5.95;5.45;;;27.00;24.10;;;;;;5106400;28;20203;-84
2022/08/18 11:55:35;;;;;;;7.50;6.72;;;27.30;25.80;;;;;;5112844;28;20219;-83
2022/08/18 11:58:04;;;;;;;6.68;5.75;;;27.20;24.20;;;;;;5104779;28;20199;-84
2022/08/18 12:00:41;;;;;;;8.43;6.38;;;27.10;24.80;;;;;;5117698;28;20218;-83
2022/08/18 12:03:15;;;;;;;11.93;6.32;;;27.40;23.50;;;;;;5106638;28;20294;-83
2022/08/18 12:05:45;;;;;;;7.38;6.68;;;27.90;22.90;;;;;;5117930;28;20227;-84
2022/08/18 12:08:22;;;;;;;7.68;6.93;;;27.90;22.50;;;;;;5104828;28;20202;-83
2022/08/18 12:10:49;;;;;;;9.40;7.75;;;28.20;21.90;;;;;;5117706;28;20676;-83
2022/08/18 12:13:25;;;;;;;9.00;7.45;;;28.00;22.90;;;;;;5115473;28;20199;-83
2022/08/18 12:16:09;;;;;;;8.82;6.72;;;27.60;23.70;;;;;;5115866;28;20380;-84
2022/08/18 12:18:37;;;;;;;8.43;6.75;;;27.80;22.90;;;;;;5110531;28;20203;-83
2022/08/18 12:21:04;;;;;;;7.15;6.45;;;27.50;25.70;;;;;;5112155;28;20657;-84
2022/08/18 12:23:35;;;;;;;7.45;5.95;;;27.50;24.00;;;;;;5117913;28;20636;-84
2022/08/18 12:26:02;;;;;;;6.90;6.20;;;27.70;24.70;;;;;;5113050;28;20210;-83
2022/08/18 12:28:30;;;;;;;8.60;6.50;;;28.00;22.70;;;;;;5119279;28;20203;-83
2022/08/18 12:30:58;;;;;;;7.28;5.72;;;28.10;22.30;;;;;;5118738;28;20200;-84
2022/08/18 12:33:25;;;;;;;7.43;6.57;;;28.20;22.80;;;;;;5110297;28;20666;-83
2022/08/18 12:35:52;;;;;;;8.18;5.72;;;28.00;23.10;;;;;;5114270;28;20223;-83
2022/08/18 12:38:18;;;;;;;7.88;6.68;;;27.80;23.90;;;;;;5107707;28;20259;-84
2022/08/18 12:41:05;;;;;;;6.63;6.13;;;27.90;22.70;;;;;;5121266;28;20211;-83
2022/08/18 12:43:41;;;;;;;7.60;6.53;;;27.80;22.20;;;;;;5118200;28;20623;-83
2022/08/18 12:46:08;;;;;;;7.22;6.00;;;27.40;23.10;;;;;;5102150;28;20204;-83
2022/08/18 12:48:36;;;;;;;6.28;5.68;;;27.40;24.10;;;;;;5104341;28;20682;-83
2022/08/18 12:51:16;;;;;;;9.00;6.68;;;27.60;22.50;;;;;;5103251;28;20204;-84
2022/08/18 12:53:43;;;;;;;6.70;5.50;;;27.70;22.60;;;;;;5105715;28;20205;-84
2022/08/18 12:56:19;;;;;;;9.00;5.63;;;27.90;21.80;;;;;;5106177;28;20222;-84
2022/08/18 12:58:48;;;;;;;8.40;5.80;;;27.90;21.90;;;;;;5117286;28;20207;-84
2022/08/18 13:01:15;;;;;;;5.72;5.10;;;27.80;21.90;;;;;;5115859;28;20287;-84
2022/08/18 13:03:45;;;;;;;7.65;6.57;;;28.00;21.50;;;;;;5116021;28;20290;-84
2022/08/18 13:06:13;;;;;;;5.85;5.13;;;27.80;21.20;;;;;;5114088;28;20206;-85
2022/08/18 13:08:41;;;;;;;7.22;5.40;;;27.80;22.00;;;;;;5115786;28;20207;-84
2022/08/18 13:11:10;;;;;;;5.90;5.40;;;27.70;22.50;;;;;;5115473;28;20219;-83
2022/08/18 13:13:38;;;;;;;8.52;5.55;;;27.80;21.00;;;;;;5119001;27;20274;-83
2022/08/18 13:16:17;;;;;;;5.28;4.85;;;27.50;21.10;;;;;;5115807;28;20249;-83
2022/08/18 13:18:44;;;;;;;5.88;5.38;;;27.50;22.30;;;;;;5107521;28;20203;-83
2022/08/18 13:21:17;;;;;;;6.03;5.43;;;27.70;22.50;;;;;;5118287;28;20203;-83
2022/08/18 13:23:45;;;;;;;8.85;5.57;;;27.50;23.90;;;;;;5117673;28;20210;-84
2022/08/18 13:26:19;;;;;;;10.50;6.38;;;27.50;23.80;;;;;;5115532;28;20217;-84
2022/08/18 13:28:46;;;;;;;6.55;5.70;;;27.30;24.20;;;;;;5113492;28;20682;-84
2022/08/18 13:31:14;;;;;;;6.90;5.75;;;27.00;24.80;;;;;;5115570;28;20647;-84
2022/08/18 13:33:43;;;;;;;7.03;6.07;;;26.90;25.70;;;;;;5113424;28;20206;-84